Detroit, Michigan
Traffic Map
Current Weather Conditions
Detroit, Michigan
Broken Clouds
Broken Clouds
79°
Feels Like: 81°
Wind Chill: 79° Ceiling: 25000
Heat Index: 81° Visibility: 12mi
Dew Point: 68° Wind: 9mph
Humidity: 69% Direction: 60° (ENE)
Pressure: 29.91in Gusts: 0mph
Raw Report DataCYQG 281600Z 06008KT 12SM FEW020 BKN250 BKN270 26/20 A2991 RMK CU1CS6CI1 CU TR SLP127 DENSITY ALT 2000FT
Traffic Incident Summary
Active as of:
Severity:
Category:
InformationThere was an issue retrieving the traffic information for this location. Please try a different location or try again shortly.
Advertisements
Track Severe Weather on mobile